FBD505 UWLL-UUOB
Flight info
| Callsign | FBD505 |
|---|---|
| Flight time | 1h 30m |
| Altitude | 28000 |
| Route | TERDI1L TERDI T663 UGLAD/K0854F380 T766 PISAR N604 ATLOG L749 NEDKU M987 ELRIS T383 ASDES ASDES1R |
| Aircraft | B38M/M-SDE1FGHILORVWXY/HB1 |
Departure
| Time | 2026-04-30 18:36 |
|---|---|
| Airport | Ulyanovsk Baratayevka Airport (UWLL) |
Arrival
| Time | 2026-04-30 20:06 |
|---|---|
| Airport | Belgorod International Airport (UUOB) |
| Time | Latitude | Longitude | Altitude | Speed | Heading |
|---|---|---|---|---|---|
| 2026-04-30 18:00 | 54.28626 | 48.23221 | 375 ft | 0 kts | 123° |
| 2026-04-30 18:16 | 54.28626 | 48.23222 | 375 ft | 0 kts | 123° |
| 2026-04-30 18:17 | 54.28623 | 48.23229 | 375 ft | 3 kts | 123° |
| 2026-04-30 18:17 | 54.28558 | 48.23238 | 376 ft | 7 kts | 211° |
| 2026-04-30 18:18 | 54.28551 | 48.23233 | 376 ft | 0 kts | 207° |
| 2026-04-30 18:18 | 54.28544 | 48.23231 | 376 ft | 2 kts | 177° |
| 2026-04-30 18:18 | 54.28516 | 48.23271 | 376 ft | 9 kts | 117° |
| 2026-04-30 18:18 | 54.28468 | 48.23424 | 378 ft | 20 kts | 122° |
| 2026-04-30 18:19 | 54.28373 | 48.23663 | 386 ft | 28 kts | 122° |
| 2026-04-30 18:19 | 54.28342 | 48.23750 | 388 ft | 0 kts | 122° |
| 2026-04-30 18:20 | 54.28341 | 48.23752 | 388 ft | 2 kts | 122° |
| 2026-04-30 18:20 | 54.28287 | 48.23911 | 390 ft | 24 kts | 120° |
| 2026-04-30 18:20 | 54.28199 | 48.24146 | 388 ft | 0 kts | 126° |
| 2026-04-30 18:21 | 54.28197 | 48.24152 | 388 ft | 1 kts | 126° |
| 2026-04-30 18:21 | 54.28190 | 48.24168 | 388 ft | 2 kts | 129° |
| 2026-04-30 18:21 | 54.28172 | 48.24189 | 388 ft | 5 kts | 162° |
| 2026-04-30 18:22 | 54.28124 | 48.24168 | 390 ft | 11 kts | 204° |
| 2026-04-30 18:22 | 54.27886 | 48.23926 | 401 ft | 31 kts | 211° |
| 2026-04-30 18:22 | 54.27660 | 48.23686 | 403 ft | 43 kts | 212° |
| 2026-04-30 18:23 | 54.27414 | 48.23418 | 421 ft | 41 kts | 212° |
| 2026-04-30 18:23 | 54.27187 | 48.23172 | 424 ft | 39 kts | 212° |
| 2026-04-30 18:23 | 54.26960 | 48.22930 | 433 ft | 38 kts | 212° |
| 2026-04-30 18:23 | 54.26842 | 48.22801 | 435 ft | 11 kts | 214° |
| 2026-04-30 18:24 | 54.26642 | 48.22587 | 439 ft | 24 kts | 210° |
| 2026-04-30 18:24 | 54.26447 | 48.22381 | 443 ft | 38 kts | 213° |
| 2026-04-30 18:24 | 54.26375 | 48.22155 | 447 ft | 0 kts | 274° |
| 2026-04-30 18:33 | 54.26382 | 48.22024 | 450 ft | 12 kts | 277° |
| 2026-04-30 18:33 | 54.26417 | 48.21904 | 449 ft | 1 kts | 350° |
| 2026-04-30 18:34 | 54.26424 | 48.21915 | 448 ft | 5 kts | 39° |
| 2026-04-30 18:34 | 54.26452 | 48.21949 | 447 ft | 0 kts | 34° |
| 2026-04-30 18:34 | 54.26454 | 48.21951 | 446 ft | 0 kts | 35° |
| 2026-04-30 18:35 | 54.26468 | 48.21968 | 432 ft | 5 kts | 34° |
| 2026-04-30 18:35 | 54.26525 | 48.22028 | 441 ft | 18 kts | 31° |
| 2026-04-30 18:35 | 54.26856 | 48.22389 | 435 ft | 97 kts | 32° |
| 2026-04-30 18:36 | 54.28597 | 48.24244 | 988 ft | 176 kts | 31° |
| 2026-04-30 18:36 | 54.29613 | 48.25307 | 1886 ft | 170 kts | 31° |
| 2026-04-30 18:36 | 54.31813 | 48.27492 | 2550 ft | 193 kts | 32° |
| 2026-04-30 18:37 | 54.33022 | 48.28662 | 2557 ft | 205 kts | 22° |
| 2026-04-30 18:37 | 54.34486 | 48.28992 | 2767 ft | 223 kts | 351° |
| 2026-04-30 18:37 | 54.35821 | 48.27714 | 2864 ft | 230 kts | 313° |
| 2026-04-30 18:37 | 54.36511 | 48.25229 | 3353 ft | 237 kts | 281° |
| 2026-04-30 18:38 | 54.36498 | 48.22412 | 4285 ft | 244 kts | 257° |
| 2026-04-30 18:38 | 54.35910 | 48.19555 | 4888 ft | 264 kts | 245° |
| 2026-04-30 18:38 | 54.35176 | 48.16641 | 5844 ft | 265 kts | 248° |
| 2026-04-30 18:38 | 54.34531 | 48.13695 | 6952 ft | 264 kts | 250° |
| 2026-04-30 18:39 | 54.34147 | 48.11713 | 7580 ft | 266 kts | 252° |
| 2026-04-30 18:39 | 54.33451 | 48.07638 | 8879 ft | 268 kts | 253° |
| 2026-04-30 18:39 | 54.33133 | 48.05588 | 9534 ft | 269 kts | 254° |
| 2026-04-30 18:39 | 54.32670 | 48.02443 | 10070 ft | 274 kts | 254° |
| 2026-04-30 18:40 | 54.32074 | 47.98232 | 10099 ft | 274 kts | 254° |
| 2026-04-30 18:40 | 54.31636 | 47.95063 | 10099 ft | 273 kts | 255° |
| 2026-04-30 18:40 | 54.31203 | 47.91894 | 10106 ft | 274 kts | 255° |
| 2026-04-30 18:40 | 54.30910 | 47.89742 | 10105 ft | 274 kts | 255° |
| 2026-04-30 18:41 | 54.30479 | 47.86566 | 10103 ft | 274 kts | 255° |
| 2026-04-30 18:41 | 54.30043 | 47.83359 | 10466 ft | 286 kts | 255° |
| 2026-04-30 18:41 | 54.29810 | 47.79898 | 10914 ft | 304 kts | 264° |
| 2026-04-30 18:41 | 54.29664 | 47.76220 | 11516 ft | 313 kts | 263° |
| 2026-04-30 18:42 | 54.29495 | 47.72497 | 12433 ft | 314 kts | 262° |
| 2026-04-30 18:42 | 54.28404 | 47.65360 | 14053 ft | 313 kts | 237° |
| 2026-04-30 18:42 | 54.27264 | 47.62184 | 14776 ft | 315 kts | 237° |
| 2026-04-30 18:45 | 54.15852 | 47.28954 | 21544 ft | 337 kts | 236° |
| 2026-04-30 18:45 | 54.14663 | 47.25500 | 22109 ft | 339 kts | 236° |
| 2026-04-30 18:45 | 54.13463 | 47.22019 | 22695 ft | 341 kts | 236° |
| 2026-04-30 18:46 | 54.12253 | 47.18511 | 23264 ft | 344 kts | 236° |
| 2026-04-30 18:46 | 54.11034 | 47.14987 | 23790 ft | 346 kts | 236° |
| 2026-04-30 18:46 | 54.09823 | 47.11486 | 24215 ft | 349 kts | 236° |
| 2026-04-30 18:46 | 54.08796 | 47.08522 | 24553 ft | 352 kts | 236° |
| 2026-04-30 18:47 | 54.07954 | 47.06095 | 24842 ft | 354 kts | 235° |
| 2026-04-30 18:47 | 54.06697 | 47.02478 | 25146 ft | 361 kts | 235° |
| 2026-04-30 18:47 | 54.05414 | 46.98789 | 25524 ft | 364 kts | 235° |
| 2026-04-30 18:47 | 54.04118 | 46.95068 | 25893 ft | 368 kts | 235° |
| 2026-04-30 18:48 | 54.02813 | 46.91331 | 26338 ft | 369 kts | 235° |
| 2026-04-30 18:48 | 54.01502 | 46.87581 | 26782 ft | 370 kts | 235° |
| 2026-04-30 18:48 | 54.00182 | 46.83812 | 27231 ft | 371 kts | 236° |
| 2026-04-30 18:48 | 53.98858 | 46.80038 | 27678 ft | 372 kts | 236° |
| 2026-04-30 18:49 | 53.97526 | 46.76245 | 28044 ft | 375 kts | 236° |
| 2026-04-30 18:49 | 53.94869 | 46.68697 | 28097 ft | 374 kts | 236° |
| 2026-04-30 18:50 | 53.92201 | 46.61140 | 28092 ft | 377 kts | 236° |
| 2026-04-30 18:50 | 53.89498 | 46.53506 | 28093 ft | 378 kts | 236° |
| 2026-04-30 18:51 | 53.86788 | 46.45876 | 28073 ft | 378 kts | 236° |
| 2026-04-30 18:51 | 53.84074 | 46.38257 | 28085 ft | 378 kts | 236° |
| 2026-04-30 18:52 | 53.81361 | 46.30667 | 28090 ft | 378 kts | 236° |
| 2026-04-30 18:52 | 53.78657 | 46.23123 | 28093 ft | 378 kts | 236° |
| 2026-04-30 18:53 | 53.75923 | 46.15519 | 28101 ft | 379 kts | 236° |
| 2026-04-30 18:53 | 53.73179 | 46.07911 | 28083 ft | 379 kts | 236° |
| 2026-04-30 18:54 | 53.70432 | 46.00318 | 28086 ft | 379 kts | 236° |
| 2026-04-30 18:54 | 53.67686 | 45.92752 | 28091 ft | 379 kts | 236° |
| 2026-04-30 18:55 | 53.64949 | 45.85232 | 28097 ft | 379 kts | 236° |
| 2026-04-30 18:55 | 53.60809 | 45.73899 | 28091 ft | 378 kts | 236° |
| 2026-04-30 18:56 | 53.56660 | 45.62594 | 28092 ft | 378 kts | 236° |
| 2026-04-30 18:57 | 53.52530 | 45.51392 | 28092 ft | 378 kts | 236° |
| 2026-04-30 18:57 | 53.49753 | 45.43889 | 28093 ft | 378 kts | 236° |
| 2026-04-30 18:58 | 53.45582 | 45.32658 | 28095 ft | 378 kts | 236° |
| 2026-04-30 18:59 | 53.41425 | 45.21519 | 28097 ft | 378 kts | 236° |
| 2026-04-30 19:00 | 53.35837 | 45.06619 | 28101 ft | 378 kts | 235° |
| 2026-04-30 19:01 | 53.30226 | 44.91746 | 28103 ft | 379 kts | 236° |
| 2026-04-30 19:02 | 53.26001 | 44.80605 | 28106 ft | 379 kts | 235° |
| 2026-04-30 19:03 | 53.20358 | 44.65803 | 28106 ft | 379 kts | 235° |
| 2026-04-30 19:04 | 53.14689 | 44.51020 | 28109 ft | 380 kts | 236° |
| 2026-04-30 19:05 | 53.08977 | 44.36210 | 28112 ft | 380 kts | 235° |
| 2026-04-30 19:06 | 53.03269 | 44.21497 | 28115 ft | 380 kts | 235° |
| 2026-04-30 19:06 | 52.98976 | 44.10490 | 28113 ft | 380 kts | 235° |
| 2026-04-30 19:07 | 52.94676 | 43.99511 | 28118 ft | 380 kts | 235° |
| 2026-04-30 19:08 | 52.88906 | 43.84852 | 28118 ft | 380 kts | 235° |
| 2026-04-30 19:09 | 52.84572 | 43.73898 | 28129 ft | 382 kts | 236° |
| 2026-04-30 19:09 | 52.81650 | 43.66540 | 28130 ft | 382 kts | 236° |
| 2026-04-30 19:10 | 52.75798 | 43.51866 | 28136 ft | 383 kts | 236° |
| 2026-04-30 19:11 | 52.71423 | 43.40949 | 28139 ft | 382 kts | 236° |
| 2026-04-30 19:12 | 52.68476 | 43.33624 | 28142 ft | 384 kts | 238° |
| 2026-04-30 19:12 | 52.65518 | 43.26291 | 28143 ft | 384 kts | 238° |
| 2026-04-30 19:13 | 52.59593 | 43.11667 | 28158 ft | 385 kts | 238° |
| 2026-04-30 19:14 | 52.56636 | 43.04403 | 28156 ft | 384 kts | 237° |
| 2026-04-30 19:14 | 52.53668 | 42.97128 | 28159 ft | 383 kts | 238° |
| 2026-04-30 19:15 | 52.50700 | 42.89874 | 28162 ft | 382 kts | 238° |
| 2026-04-30 19:15 | 52.46783 | 42.78660 | 28178 ft | 377 kts | 254° |
| 2026-04-30 19:16 | 52.45067 | 42.70519 | 28169 ft | 379 kts | 252° |
| 2026-04-30 19:17 | 52.42433 | 42.58377 | 28172 ft | 378 kts | 252° |
| 2026-04-30 19:17 | 52.39797 | 42.46300 | 28189 ft | 375 kts | 251° |
| 2026-04-30 19:18 | 52.37158 | 42.34277 | 28178 ft | 375 kts | 251° |
| 2026-04-30 19:19 | 52.35396 | 42.26289 | 28185 ft | 376 kts | 251° |
| 2026-04-30 19:19 | 52.32725 | 42.14243 | 28181 ft | 376 kts | 251° |
| 2026-04-30 19:20 | 52.30941 | 42.06232 | 28172 ft | 374 kts | 251° |
| 2026-04-30 19:21 | 52.28292 | 41.94353 | 28185 ft | 373 kts | 251° |
| 2026-04-30 19:22 | 52.24729 | 41.78451 | 28178 ft | 373 kts | 251° |
| 2026-04-30 19:23 | 52.19367 | 41.54753 | 28190 ft | 371 kts | 250° |
| 2026-04-30 19:24 | 52.16678 | 41.42965 | 28185 ft | 370 kts | 250° |
| 2026-04-30 19:25 | 52.12176 | 41.23378 | 28194 ft | 372 kts | 250° |
| 2026-04-30 19:26 | 52.08527 | 41.07631 | 28199 ft | 371 kts | 250° |
| 2026-04-30 19:27 | 52.05800 | 40.95937 | 28188 ft | 370 kts | 250° |
| 2026-04-30 19:28 | 52.03037 | 40.84251 | 28203 ft | 371 kts | 249° |
| 2026-04-30 19:29 | 51.99316 | 40.68680 | 28203 ft | 370 kts | 249° |
| 2026-04-30 19:30 | 51.95602 | 40.53245 | 28199 ft | 367 kts | 249° |
| 2026-04-30 19:31 | 51.91883 | 40.37897 | 28201 ft | 367 kts | 249° |
| 2026-04-30 19:31 | 51.89083 | 40.26446 | 28199 ft | 366 kts | 249° |
| 2026-04-30 19:32 | 51.87197 | 40.18764 | 28195 ft | 369 kts | 249° |
| 2026-04-30 19:32 | 51.85300 | 40.11060 | 28204 ft | 369 kts | 249° |
| 2026-04-30 19:33 | 51.83393 | 40.03375 | 28207 ft | 368 kts | 249° |
| 2026-04-30 19:33 | 51.81493 | 39.95745 | 28209 ft | 368 kts | 249° |
| 2026-04-30 19:34 | 51.79585 | 39.88069 | 28191 ft | 368 kts | 249° |
| 2026-04-30 19:35 | 51.76711 | 39.76559 | 28211 ft | 368 kts | 249° |
| 2026-04-30 19:35 | 51.74798 | 39.68933 | 28190 ft | 368 kts | 249° |
| 2026-04-30 19:36 | 51.72649 | 39.61523 | 28182 ft | 369 kts | 234° |
| 2026-04-30 19:36 | 51.67929 | 39.51650 | 28217 ft | 371 kts | 234° |
| 2026-04-30 19:37 | 51.64775 | 39.45085 | 28210 ft | 371 kts | 234° |
| 2026-04-30 19:37 | 51.61621 | 39.38550 | 28199 ft | 371 kts | 234° |
| 2026-04-30 19:38 | 51.58474 | 39.32047 | 28201 ft | 370 kts | 234° |
| 2026-04-30 19:38 | 51.55322 | 39.25550 | 28211 ft | 368 kts | 234° |
| 2026-04-30 19:39 | 51.52175 | 39.19080 | 28212 ft | 368 kts | 234° |
| 2026-04-30 19:39 | 51.49042 | 39.12655 | 28212 ft | 368 kts | 234° |
| 2026-04-30 19:40 | 51.46094 | 39.06623 | 28209 ft | 361 kts | 234° |
| 2026-04-30 19:40 | 51.44577 | 39.03525 | 28220 ft | 346 kts | 234° |
| 2026-04-30 19:40 | 51.43120 | 39.00553 | 28191 ft | 333 kts | 234° |
| 2026-04-30 19:41 | 51.41711 | 38.97681 | 27974 ft | 325 kts | 234° |
| 2026-04-30 19:41 | 51.40319 | 38.94847 | 27592 ft | 322 kts | 234° |
| 2026-04-30 19:41 | 51.38941 | 38.92044 | 27237 ft | 319 kts | 234° |
| 2026-04-30 19:41 | 51.37574 | 38.89267 | 26871 ft | 316 kts | 234° |
| 2026-04-30 19:42 | 51.36233 | 38.86550 | 26438 ft | 315 kts | 235° |
| 2026-04-30 19:42 | 51.34882 | 38.83812 | 26088 ft | 312 kts | 235° |
| 2026-04-30 19:42 | 51.33542 | 38.81101 | 25772 ft | 308 kts | 235° |
| 2026-04-30 19:42 | 51.32223 | 38.78435 | 25443 ft | 305 kts | 235° |
| 2026-04-30 19:43 | 51.30919 | 38.75801 | 25116 ft | 302 kts | 235° |
| 2026-04-30 19:43 | 51.29620 | 38.73181 | 24800 ft | 299 kts | 235° |
| 2026-04-30 19:43 | 51.28342 | 38.70604 | 24478 ft | 296 kts | 235° |
| 2026-04-30 19:44 | 51.25831 | 38.65549 | 23857 ft | 290 kts | 235° |
| 2026-04-30 19:44 | 51.24597 | 38.63072 | 23726 ft | 280 kts | 235° |
| 2026-04-30 19:44 | 51.23386 | 38.60640 | 23624 ft | 284 kts | 235° |
| 2026-04-30 19:44 | 51.22135 | 38.58130 | 23482 ft | 292 kts | 234° |
| 2026-04-30 19:45 | 51.20859 | 38.55574 | 23186 ft | 297 kts | 234° |
| 2026-04-30 19:45 | 51.19570 | 38.52993 | 22861 ft | 297 kts | 234° |
| 2026-04-30 19:45 | 51.18281 | 38.50416 | 22516 ft | 297 kts | 234° |
| 2026-04-30 19:45 | 51.16995 | 38.47847 | 22175 ft | 296 kts | 234° |
| 2026-04-30 19:46 | 51.15722 | 38.45306 | 21839 ft | 296 kts | 234° |
| 2026-04-30 19:46 | 51.14438 | 38.42745 | 21499 ft | 295 kts | 234° |
| 2026-04-30 19:46 | 51.13174 | 38.40227 | 21169 ft | 295 kts | 234° |
| 2026-04-30 19:46 | 51.11892 | 38.37676 | 20843 ft | 295 kts | 234° |
| 2026-04-30 19:47 | 51.10613 | 38.35132 | 20518 ft | 294 kts | 234° |
| 2026-04-30 19:47 | 51.09767 | 38.33452 | 20295 ft | 294 kts | 234° |
| 2026-04-30 19:47 | 51.08012 | 38.29962 | 18723 ft | 325 kts | 234° |
| 2026-04-30 19:47 | 51.06643 | 38.27199 | 18596 ft | 314 kts | 234° |
| 2026-04-30 19:48 | 51.05312 | 38.24519 | 18570 ft | 301 kts | 233° |
| 2026-04-30 19:48 | 51.04014 | 38.22001 | 18510 ft | 289 kts | 233° |
| 2026-04-30 19:48 | 51.02763 | 38.19556 | 18367 ft | 280 kts | 233° |
| 2026-04-30 19:48 | 51.01567 | 38.17208 | 18126 ft | 279 kts | 233° |
| 2026-04-30 19:49 | 51.00337 | 38.14789 | 17831 ft | 286 kts | 233° |
| 2026-04-30 19:49 | 50.97816 | 38.09827 | 17229 ft | 291 kts | 233° |
| 2026-04-30 19:49 | 50.96543 | 38.07324 | 16927 ft | 291 kts | 233° |
| 2026-04-30 19:50 | 50.95270 | 38.04824 | 16614 ft | 290 kts | 233° |
| 2026-04-30 19:50 | 50.94003 | 38.02336 | 16301 ft | 290 kts | 233° |
| 2026-04-30 19:50 | 50.92739 | 37.99857 | 15990 ft | 289 kts | 233° |
| 2026-04-30 19:50 | 50.91500 | 37.97431 | 15668 ft | 289 kts | 233° |
| 2026-04-30 19:51 | 50.90239 | 37.94962 | 15374 ft | 289 kts | 233° |
| 2026-04-30 19:51 | 50.88973 | 37.92486 | 15079 ft | 289 kts | 233° |
| 2026-04-30 19:51 | 50.87709 | 37.90015 | 14759 ft | 289 kts | 233° |
| 2026-04-30 19:51 | 50.86442 | 37.87543 | 14449 ft | 290 kts | 233° |
| 2026-04-30 19:52 | 50.85175 | 37.85073 | 14141 ft | 290 kts | 233° |
| 2026-04-30 19:52 | 50.83958 | 37.82554 | 13774 ft | 290 kts | 241° |
| 2026-04-30 19:52 | 50.83181 | 37.79628 | 13367 ft | 288 kts | 252° |
| 2026-04-30 19:52 | 50.82511 | 37.76669 | 13053 ft | 284 kts | 251° |
| 2026-04-30 19:53 | 50.81830 | 37.73768 | 12759 ft | 281 kts | 251° |
| 2026-04-30 19:53 | 50.81148 | 37.70911 | 12462 ft | 278 kts | 251° |
| 2026-04-30 19:53 | 50.80462 | 37.68067 | 12161 ft | 275 kts | 251° |
| 2026-04-30 19:53 | 50.79780 | 37.65259 | 11861 ft | 272 kts | 251° |
| 2026-04-30 19:54 | 50.79111 | 37.62518 | 11574 ft | 270 kts | 251° |
| 2026-04-30 19:54 | 50.78439 | 37.59773 | 11281 ft | 268 kts | 251° |
| 2026-04-30 19:54 | 50.77768 | 37.57038 | 10980 ft | 266 kts | 251° |
| 2026-04-30 19:54 | 50.77107 | 37.54347 | 10702 ft | 263 kts | 251° |
| 2026-04-30 19:55 | 50.76446 | 37.51663 | 10423 ft | 261 kts | 251° |
| 2026-04-30 19:55 | 50.75784 | 37.48975 | 10237 ft | 265 kts | 251° |
| 2026-04-30 19:55 | 50.75116 | 37.46267 | 10018 ft | 267 kts | 251° |
| 2026-04-30 19:55 | 50.74446 | 37.43554 | 9699 ft | 268 kts | 250° |
| 2026-04-30 19:56 | 50.73777 | 37.40852 | 9389 ft | 267 kts | 250° |
| 2026-04-30 19:56 | 50.73105 | 37.38138 | 9088 ft | 265 kts | 250° |
| 2026-04-30 19:56 | 50.72439 | 37.35454 | 8800 ft | 262 kts | 250° |
| 2026-04-30 19:56 | 50.71776 | 37.32783 | 8509 ft | 259 kts | 250° |
| 2026-04-30 19:57 | 50.71122 | 37.30149 | 8223 ft | 257 kts | 250° |
| 2026-04-30 19:57 | 50.70474 | 37.27541 | 7950 ft | 255 kts | 250° |
| 2026-04-30 19:57 | 50.69829 | 37.24955 | 7676 ft | 252 kts | 250° |
| 2026-04-30 19:57 | 50.69192 | 37.22400 | 7396 ft | 250 kts | 250° |
| 2026-04-30 19:58 | 50.68556 | 37.19852 | 7128 ft | 248 kts | 250° |
| 2026-04-30 19:58 | 50.67927 | 37.17334 | 6866 ft | 253 kts | 250° |
| 2026-04-30 19:58 | 50.67281 | 37.14752 | 6590 ft | 258 kts | 250° |
| 2026-04-30 19:58 | 50.66619 | 37.12112 | 6287 ft | 260 kts | 249° |
| 2026-04-30 19:59 | 50.65959 | 37.09479 | 5990 ft | 260 kts | 249° |
| 2026-04-30 19:59 | 50.65297 | 37.06843 | 5684 ft | 259 kts | 249° |
| 2026-04-30 19:59 | 50.63980 | 37.01607 | 5131 ft | 255 kts | 249° |
| 2026-04-30 20:00 | 50.63330 | 36.99026 | 4911 ft | 250 kts | 249° |
| 2026-04-30 20:00 | 50.62651 | 36.96557 | 4794 ft | 242 kts | 238° |
| 2026-04-30 20:00 | 50.61612 | 36.94572 | 4636 ft | 235 kts | 228° |
| 2026-04-30 20:00 | 50.60530 | 36.92692 | 4457 ft | 228 kts | 228° |
| 2026-04-30 20:01 | 50.58448 | 36.89099 | 4093 ft | 218 kts | 228° |
| 2026-04-30 20:01 | 50.57439 | 36.87365 | 3921 ft | 212 kts | 228° |
| 2026-04-30 20:01 | 50.56632 | 36.85486 | 3717 ft | 205 kts | 255° |
| 2026-04-30 20:02 | 50.57138 | 36.81372 | 3301 ft | 197 kts | 297° |
| 2026-04-30 20:02 | 50.57736 | 36.79435 | 3156 ft | 195 kts | 298° |
| 2026-04-30 20:03 | 50.58885 | 36.75824 | 2856 ft | 177 kts | 299° |
| 2026-04-30 20:03 | 50.59439 | 36.74110 | 2566 ft | 176 kts | 299° |
| 2026-04-30 20:03 | 50.59974 | 36.72459 | 2283 ft | 163 kts | 300° |
| 2026-04-30 20:03 | 50.60484 | 36.70893 | 2016 ft | 159 kts | 299° |
| 2026-04-30 20:04 | 50.60962 | 36.69421 | 1832 ft | 145 kts | 300° |
| 2026-04-30 20:04 | 50.61417 | 36.68041 | 1693 ft | 140 kts | 300° |
| 2026-04-30 20:04 | 50.61861 | 36.66691 | 1512 ft | 138 kts | 300° |
| 2026-04-30 20:05 | 50.62760 | 36.64031 | 1242 ft | 137 kts | 299° |
| 2026-04-30 20:05 | 50.63202 | 36.62694 | 1092 ft | 140 kts | 294° |
| 2026-04-30 20:05 | 50.64039 | 36.60069 | 741 ft | 141 kts | 298° |
| 2026-04-30 20:06 | 50.64451 | 36.58828 | 727 ft | 111 kts | 297° |
| 2026-04-30 20:06 | 50.64706 | 36.58040 | 723 ft | 53 kts | 297° |
| 2026-04-30 20:06 | 50.64808 | 36.57687 | 721 ft | 20 kts | 286° |
| 2026-04-30 20:06 | 50.64791 | 36.57527 | 724 ft | 12 kts | 213° |
| 2026-04-30 20:07 | 50.64754 | 36.57498 | 723 ft | 0 kts | 206° |
| 2026-04-30 20:09 | 50.64753 | 36.57497 | 723 ft | 1 kts | 206° |
| 2026-04-30 20:09 | 50.64726 | 36.57476 | 724 ft | 11 kts | 207° |
| 2026-04-30 20:09 | 50.64616 | 36.57350 | 724 ft | 6 kts | 264° |
| 2026-04-30 20:10 | 50.64666 | 36.57304 | 725 ft | 6 kts | 348° |
| 2026-04-30 20:10 | 50.64673 | 36.57301 | 725 ft | 0 kts | 348° |